Moore, Montana
Current Conditions -  °F | °C
As of 1:54 PM on Saturday 25 Oct 2014 (Local Time) from KLWT Reporting Station
Clear Clear  
Wind Chill: 70°   Ceiling: Unl
Heat Index: 70°   Visibility: 10mi
Dew Point: 44°   Wind: 6mph
Humidity: 39%   Direction: 300°WNW
Pressure: 29.83"   Gusts: NA
Location:  46.98°N, 109.7°W
Report Text: KLWT 251954Z AUTO 30005KT 10SM CLR 21/07 A2983 RMK AO2 SLP082 T02110067
Loading
Personal Weather Stations






























Interactive Weather Map
Tropical Storm Tracking
New forecast layout! Learn more

10-Day Weather Forecast

Advertisements
Track Severe Weather on mobile